Search for airport 
image banner adimage banner adimage banner ad
image banner ad

1IA7 - University Of Iowa Hospitals&Clinic

Located in Iowa City, United States

ICAO - 1IA7, IATA -

Data provided by Airmate  

General information

Coordinates: N41°39'36" W91°32'51"
Elevation is 840 feet MSL.
Magnetic variation is 02° East
View others Airports in Iowa

Operational data

Special qualification required
Current time UTC:
Current local time:
Weather at : KIOW - Iowa City Muni ( 2 km )
METAR: KIOW 270452Z AUTO 00000KT 10SM CLR 23/17 A3005 RMK AO2 SLP170 T02280172
View NOTAMs / SUP AIP / TFR affecting this airport [VIEW]
Communications frequencies: [VIEW]

Runways:

Airport contact information

Address: Iowa City United States

Satellite view of 1IA7